sensor_id;sensor_type;location;lat;lon;timestamp;P1;durP1;ratioP1;P2;durP2;ratioP2
76296;SDS011;65104;52.994;6.552;2023-03-23T00:01:47;14.32;;;9.07;;
76296;SDS011;65104;52.994;6.552;2023-03-23T00:06:40;12.80;;;8.40;;
76296;SDS011;65104;52.994;6.552;2023-03-23T00:09:05;12.93;;;8.73;;
76296;SDS011;65104;52.994;6.552;2023-03-23T00:11:31;18.38;;;8.18;;
76296;SDS011;65104;52.994;6.552;2023-03-23T00:13:58;14.00;;;9.48;;
76296;SDS011;65104;52.994;6.552;2023-03-23T00:16:26;12.77;;;7.63;;
76296;SDS011;65104;52.994;6.552;2023-03-23T00:18:58;10.85;;;7.80;;
76296;SDS011;65104;52.994;6.552;2023-03-23T00:21:26;13.15;;;7.65;;
76296;SDS011;65104;52.994;6.552;2023-03-23T00:26:29;11.13;;;7.70;;
76296;SDS011;65104;52.994;6.552;2023-03-23T00:28:58;9.00;;;6.90;;
76296;SDS011;65104;52.994;6.552;2023-03-23T00:31:25;10.73;;;6.97;;
76296;SDS011;65104;52.994;6.552;2023-03-23T00:33:56;12.43;;;6.75;;
76296;SDS011;65104;52.994;6.552;2023-03-23T00:36:23;14.55;;;7.90;;
76296;SDS011;65104;52.994;6.552;2023-03-23T00:38:49;9.93;;;5.65;;
76296;SDS011;65104;52.994;6.552;2023-03-23T00:41:14;8.98;;;5.93;;
76296;SDS011;65104;52.994;6.552;2023-03-23T00:43:40;9.50;;;5.75;;
76296;SDS011;65104;52.994;6.552;2023-03-23T00:46:06;9.77;;;6.07;;
76296;SDS011;65104;52.994;6.552;2023-03-23T00:48:35;12.55;;;5.93;;
76296;SDS011;65104;52.994;6.552;2023-03-23T00:51:05;9.43;;;6.00;;
76296;SDS011;65104;52.994;6.552;2023-03-23T00:53:35;10.68;;;5.97;;
76296;SDS011;65104;52.994;6.552;2023-03-23T00:56:00;7.32;;;5.70;;
76296;SDS011;65104;52.994;6.552;2023-03-23T00:58:26;10.15;;;6.20;;
76296;SDS011;65104;52.994;6.552;2023-03-23T01:00:51;8.10;;;6.15;;
76296;SDS011;65104;52.994;6.552;2023-03-23T01:03:17;6.80;;;4.80;;
76296;SDS011;65104;52.994;6.552;2023-03-23T01:05:43;9.95;;;5.10;;
76296;SDS011;65104;52.994;6.552;2023-03-23T01:08:11;6.60;;;5.05;;
76296;SDS011;65104;52.994;6.552;2023-03-23T01:10:38;8.73;;;4.82;;
76296;SDS011;65104;52.994;6.552;2023-03-23T01:13:03;7.68;;;5.40;;
76296;SDS011;65104;52.994;6.552;2023-03-23T01:15:30;10.00;;;4.70;;
76296;SDS011;65104;52.994;6.552;2023-03-23T01:17:56;7.93;;;4.35;;
76296;SDS011;65104;52.994;6.552;2023-03-23T01:20:22;7.00;;;4.65;;
76296;SDS011;65104;52.994;6.552;2023-03-23T01:22:48;6.13;;;4.78;;
76296;SDS011;65104;52.994;6.552;2023-03-23T01:25:14;6.07;;;3.53;;
76296;SDS011;65104;52.994;6.552;2023-03-23T01:27:40;6.60;;;4.18;;
76296;SDS011;65104;52.994;6.552;2023-03-23T01:30:06;8.40;;;4.68;;
76296;SDS011;65104;52.994;6.552;2023-03-23T01:32:34;6.43;;;3.92;;
76296;SDS011;65104;52.994;6.552;2023-03-23T01:35:00;5.15;;;3.67;;
76296;SDS011;65104;52.994;6.552;2023-03-23T01:37:25;6.60;;;3.95;;
76296;SDS011;65104;52.994;6.552;2023-03-23T01:39:55;4.72;;;3.38;;
76296;SDS011;65104;52.994;6.552;2023-03-23T01:42:24;5.30;;;3.83;;
76296;SDS011;65104;52.994;6.552;2023-03-23T01:47:16;6.88;;;3.80;;
76296;SDS011;65104;52.994;6.552;2023-03-23T01:49:46;9.43;;;3.47;;
76296;SDS011;65104;52.994;6.552;2023-03-23T01:52:14;5.53;;;4.10;;
76296;SDS011;65104;52.994;6.552;2023-03-23T01:54:46;7.75;;;3.15;;
76296;SDS011;65104;52.994;6.552;2023-03-23T01:57:15;4.57;;;3.22;;
76296;SDS011;65104;52.994;6.552;2023-03-23T01:59:43;7.85;;;3.70;;
76296;SDS011;65104;52.994;6.552;2023-03-23T02:02:12;5.50;;;3.47;;
76296;SDS011;65104;52.994;6.552;2023-03-23T02:04:40;5.68;;;3.60;;
76296;SDS011;65104;52.994;6.552;2023-03-23T02:07:06;4.80;;;3.58;;
76296;SDS011;65104;52.994;6.552;2023-03-23T02:09:33;5.45;;;3.67;;
76296;SDS011;65104;52.994;6.552;2023-03-23T02:11:58;5.32;;;3.10;;
76296;SDS011;65104;52.994;6.552;2023-03-23T02:14:24;6.05;;;2.65;;
76296;SDS011;65104;52.994;6.552;2023-03-23T02:20:23;5.32;;;3.40;;
76296;SDS011;65104;52.994;6.552;2023-03-23T02:23:13;4.88;;;3.35;;
76296;SDS011;65104;52.994;6.552;2023-03-23T02:33:45;5.07;;;3.03;;
76296;SDS011;65104;52.994;6.552;2023-03-23T02:36:20;5.97;;;3.45;;
76296;SDS011;65104;52.994;6.552;2023-03-23T02:41:36;6.65;;;3.00;;
76296;SDS011;65104;52.994;6.552;2023-03-23T02:44:06;4.80;;;2.70;;
76296;SDS011;65104;52.994;6.552;2023-03-23T02:46:33;4.72;;;2.97;;
76296;SDS011;65104;52.994;6.552;2023-03-23T02:49:00;3.95;;;2.45;;
76296;SDS011;65104;52.994;6.552;2023-03-23T02:51:28;6.53;;;2.63;;
76296;SDS011;65104;52.994;6.552;2023-03-23T02:53:55;3.33;;;2.80;;
76296;SDS011;65104;52.994;6.552;2023-03-23T02:56:23;6.63;;;2.70;;
76296;SDS011;65104;52.994;6.552;2023-03-23T02:58:52;5.32;;;2.53;;
76296;SDS011;65104;52.994;6.552;2023-03-23T03:03:50;5.10;;;2.85;;
76296;SDS011;65104;52.994;6.552;2023-03-23T03:09:09;6.88;;;3.20;;
76296;SDS011;65104;52.994;6.552;2023-03-23T03:11:42;4.93;;;3.03;;
76296;SDS011;65104;52.994;6.552;2023-03-23T03:14:17;4.60;;;2.95;;
76296;SDS011;65104;52.994;6.552;2023-03-23T03:16:53;3.47;;;2.22;;
76296;SDS011;65104;52.994;6.552;2023-03-23T03:19:29;5.78;;;2.60;;
76296;SDS011;65104;52.994;6.552;2023-03-23T03:21:58;5.47;;;2.50;;
76296;SDS011;65104;52.994;6.552;2023-03-23T03:24:25;4.35;;;2.70;;
76296;SDS011;65104;52.994;6.552;2023-03-23T03:26:54;3.28;;;2.35;;
76296;SDS011;65104;52.994;6.552;2023-03-23T03:29:44;3.88;;;2.65;;
76296;SDS011;65104;52.994;6.552;2023-03-23T03:32:11;3.30;;;2.05;;
76296;SDS011;65104;52.994;6.552;2023-03-23T03:34:40;3.17;;;2.70;;
76296;SDS011;65104;52.994;6.552;2023-03-23T03:37:05;6.10;;;2.95;;
76296;SDS011;65104;52.994;6.552;2023-03-23T03:39:33;4.20;;;2.45;;
76296;SDS011;65104;52.994;6.552;2023-03-23T03:42:00;4.32;;;2.55;;
76296;SDS011;65104;52.994;6.552;2023-03-23T03:44:26;5.38;;;2.50;;
76296;SDS011;65104;52.994;6.552;2023-03-23T03:46:51;6.15;;;2.80;;
76296;SDS011;65104;52.994;6.552;2023-03-23T03:49:17;6.65;;;2.70;;
76296;SDS011;65104;52.994;6.552;2023-03-23T03:51:42;6.60;;;3.00;;
76296;SDS011;65104;52.994;6.552;2023-03-23T03:54:08;4.63;;;3.10;;
76296;SDS011;65104;52.994;6.552;2023-03-23T03:56:33;5.57;;;3.05;;
76296;SDS011;65104;52.994;6.552;2023-03-23T04:01:27;4.78;;;3.22;;
76296;SDS011;65104;52.994;6.552;2023-03-23T04:03:53;5.22;;;3.05;;
76296;SDS011;65104;52.994;6.552;2023-03-23T04:06:19;5.80;;;3.60;;
76296;SDS011;65104;52.994;6.552;2023-03-23T04:08:45;5.25;;;2.90;;
76296;SDS011;65104;52.994;6.552;2023-03-23T04:11:11;5.20;;;3.35;;
76296;SDS011;65104;52.994;6.552;2023-03-23T04:13:39;4.90;;;3.20;;
76296;SDS011;65104;52.994;6.552;2023-03-23T04:16:04;8.02;;;3.95;;
76296;SDS011;65104;52.994;6.552;2023-03-23T04:18:30;7.88;;;3.65;;
76296;SDS011;65104;52.994;6.552;2023-03-23T04:20:57;6.05;;;3.75;;
76296;SDS011;65104;52.994;6.552;2023-03-23T04:23:24;4.50;;;3.22;;
76296;SDS011;65104;52.994;6.552;2023-03-23T04:25:51;5.43;;;3.33;;
76296;SDS011;65104;52.994;6.552;2023-03-23T04:28:22;5.10;;;3.78;;
76296;SDS011;65104;52.994;6.552;2023-03-23T04:30:48;4.38;;;2.88;;
76296;SDS011;65104;52.994;6.552;2023-03-23T04:33:18;7.88;;;3.88;;
76296;SDS011;65104;52.994;6.552;2023-03-23T04:35:44;5.47;;;3.45;;
76296;SDS011;65104;52.994;6.552;2023-03-23T04:38:13;4.68;;;3.30;;
76296;SDS011;65104;52.994;6.552;2023-03-23T04:40:41;4.63;;;1.65;;
76296;SDS011;65104;52.994;6.552;2023-03-23T04:43:07;5.25;;;1.45;;
76296;SDS011;65104;52.994;6.552;2023-03-23T04:45:34;3.95;;;1.77;;
76296;SDS011;65104;52.994;6.552;2023-03-23T04:48:02;5.00;;;1.80;;
76296;SDS011;65104;52.994;6.552;2023-03-23T04:50:30;5.47;;;1.92;;
76296;SDS011;65104;52.994;6.552;2023-03-23T04:52:57;3.88;;;2.40;;
76296;SDS011;65104;52.994;6.552;2023-03-23T04:55:24;5.53;;;2.00;;
76296;SDS011;65104;52.994;6.552;2023-03-23T04:57:51;5.57;;;1.98;;
76296;SDS011;65104;52.994;6.552;2023-03-23T05:00:17;4.90;;;2.50;;
76296;SDS011;65104;52.994;6.552;2023-03-23T05:02:44;5.68;;;2.15;;
76296;SDS011;65104;52.994;6.552;2023-03-23T05:05:17;5.45;;;1.95;;
76296;SDS011;65104;52.994;6.552;2023-03-23T05:07:44;5.22;;;1.80;;
76296;SDS011;65104;52.994;6.552;2023-03-23T05:10:11;4.50;;;1.80;;
76296;SDS011;65104;52.994;6.552;2023-03-23T05:12:38;7.95;;;2.42;;
76296;SDS011;65104;52.994;6.552;2023-03-23T05:15:04;6.43;;;2.22;;
76296;SDS011;65104;52.994;6.552;2023-03-23T05:17:31;4.38;;;1.88;;
76296;SDS011;65104;52.994;6.552;2023-03-23T05:19:58;3.88;;;1.80;;
76296;SDS011;65104;52.994;6.552;2023-03-23T05:22:26;5.95;;;2.15;;
76296;SDS011;65104;52.994;6.552;2023-03-23T05:24:52;5.82;;;2.40;;
76296;SDS011;65104;52.994;6.552;2023-03-23T05:27:18;3.45;;;1.50;;
76296;SDS011;65104;52.994;6.552;2023-03-23T05:29:47;5.78;;;2.45;;
76296;SDS011;65104;52.994;6.552;2023-03-23T05:32:16;4.70;;;1.50;;
76296;SDS011;65104;52.994;6.552;2023-03-23T05:34:42;5.90;;;1.88;;
76296;SDS011;65104;52.994;6.552;2023-03-23T05:37:08;3.40;;;1.77;;
76296;SDS011;65104;52.994;6.552;2023-03-23T05:39:35;8.43;;;1.92;;
76296;SDS011;65104;52.994;6.552;2023-03-23T05:42:01;7.43;;;2.47;;
76296;SDS011;65104;52.994;6.552;2023-03-23T05:44:27;6.60;;;2.05;;
76296;SDS011;65104;52.994;6.552;2023-03-23T05:46:53;7.50;;;2.88;;
76296;SDS011;65104;52.994;6.552;2023-03-23T05:49:18;6.60;;;2.20;;
76296;SDS011;65104;52.994;6.552;2023-03-23T05:51:44;7.97;;;2.50;;
76296;SDS011;65104;52.994;6.552;2023-03-23T05:54:10;5.95;;;1.70;;
76296;SDS011;65104;52.994;6.552;2023-03-23T05:56:37;5.85;;;1.85;;
76296;SDS011;65104;52.994;6.552;2023-03-23T05:59:02;5.32;;;1.63;;
76296;SDS011;65104;52.994;6.552;2023-03-23T06:01:28;4.43;;;2.28;;
76296;SDS011;65104;52.994;6.552;2023-03-23T06:03:54;6.97;;;2.08;;
76296;SDS011;65104;52.994;6.552;2023-03-23T06:06:23;3.55;;;1.75;;
76296;SDS011;65104;52.994;6.552;2023-03-23T06:08:49;7.28;;;2.22;;
76296;SDS011;65104;52.994;6.552;2023-03-23T06:11:15;8.27;;;1.90;;
76296;SDS011;65104;52.994;6.552;2023-03-23T06:13:41;7.97;;;2.30;;
76296;SDS011;65104;52.994;6.552;2023-03-23T06:16:06;7.35;;;2.15;;
76296;SDS011;65104;52.994;6.552;2023-03-23T06:18:32;10.00;;;1.90;;
76296;SDS011;65104;52.994;6.552;2023-03-23T06:20:58;7.28;;;2.10;;
76296;SDS011;65104;52.994;6.552;2023-03-23T06:23:25;10.82;;;2.03;;
76296;SDS011;65104;52.994;6.552;2023-03-23T06:25:54;6.53;;;2.10;;
76296;SDS011;65104;52.994;6.552;2023-03-23T06:28:22;8.30;;;2.15;;
76296;SDS011;65104;52.994;6.552;2023-03-23T06:30:48;5.10;;;1.77;;
76296;SDS011;65104;52.994;6.552;2023-03-23T06:33:13;6.43;;;2.05;;
76296;SDS011;65104;52.994;6.552;2023-03-23T06:35:38;6.97;;;2.35;;
76296;SDS011;65104;52.994;6.552;2023-03-23T06:38:04;8.27;;;2.55;;
76296;SDS011;65104;52.994;6.552;2023-03-23T06:40:29;7.88;;;2.22;;
76296;SDS011;65104;52.994;6.552;2023-03-23T06:42:58;9.10;;;2.25;;
76296;SDS011;65104;52.994;6.552;2023-03-23T06:45:26;9.43;;;2.58;;
76296;SDS011;65104;52.994;6.552;2023-03-23T06:47:51;10.02;;;2.65;;
76296;SDS011;65104;52.994;6.552;2023-03-23T06:50:17;11.65;;;2.63;;
76296;SDS011;65104;52.994;6.552;2023-03-23T06:52:49;6.85;;;2.10;;
76296;SDS011;65104;52.994;6.552;2023-03-23T06:55:16;7.47;;;1.88;;
76296;SDS011;65104;52.994;6.552;2023-03-23T06:57:42;7.57;;;2.40;;
76296;SDS011;65104;52.994;6.552;2023-03-23T07:00:10;8.98;;;2.50;;
76296;SDS011;65104;52.994;6.552;2023-03-23T07:02:38;11.07;;;2.35;;
76296;SDS011;65104;52.994;6.552;2023-03-23T07:05:07;11.00;;;2.05;;
76296;SDS011;65104;52.994;6.552;2023-03-23T07:07:34;6.13;;;2.17;;
76296;SDS011;65104;52.994;6.552;2023-03-23T07:10:00;12.02;;;2.60;;
76296;SDS011;65104;52.994;6.552;2023-03-23T07:12:27;8.90;;;2.30;;
76296;SDS011;65104;52.994;6.552;2023-03-23T07:14:54;13.48;;;2.40;;
76296;SDS011;65104;52.994;6.552;2023-03-23T07:17:20;10.18;;;2.67;;
76296;SDS011;65104;52.994;6.552;2023-03-23T07:19:46;18.00;;;2.78;;
76296;SDS011;65104;52.994;6.552;2023-03-23T07:22:11;11.93;;;2.25;;
76296;SDS011;65104;52.994;6.552;2023-03-23T07:24:36;12.63;;;2.70;;
76296;SDS011;65104;52.994;6.552;2023-03-23T07:27:02;12.80;;;2.30;;
76296;SDS011;65104;52.994;6.552;2023-03-23T07:29:27;8.23;;;2.42;;
76296;SDS011;65104;52.994;6.552;2023-03-23T07:31:53;12.40;;;3.10;;
76296;SDS011;65104;52.994;6.552;2023-03-23T07:34:19;11.73;;;2.55;;
76296;SDS011;65104;52.994;6.552;2023-03-23T07:36:45;9.02;;;2.10;;
76296;SDS011;65104;52.994;6.552;2023-03-23T07:39:11;7.78;;;2.20;;
76296;SDS011;65104;52.994;6.552;2023-03-23T07:41:37;7.20;;;2.17;;
76296;SDS011;65104;52.994;6.552;2023-03-23T07:44:03;7.03;;;2.05;;
76296;SDS011;65104;52.994;6.552;2023-03-23T07:46:29;10.45;;;2.58;;
76296;SDS011;65104;52.994;6.552;2023-03-23T07:48:55;8.85;;;2.35;;
76296;SDS011;65104;52.994;6.552;2023-03-23T07:51:21;7.30;;;1.90;;
76296;SDS011;65104;52.994;6.552;2023-03-23T07:53:47;9.57;;;2.42;;
76296;SDS011;65104;52.994;6.552;2023-03-23T07:56:13;11.18;;;2.58;;
76296;SDS011;65104;52.994;6.552;2023-03-23T07:58:41;13.40;;;3.13;;
76296;SDS011;65104;52.994;6.552;2023-03-23T08:01:07;10.20;;;2.47;;
76296;SDS011;65104;52.994;6.552;2023-03-23T08:03:33;9.27;;;2.10;;
76296;SDS011;65104;52.994;6.552;2023-03-23T08:05:59;11.85;;;2.45;;
76296;SDS011;65104;52.994;6.552;2023-03-23T08:08:25;10.57;;;2.55;;
76296;SDS011;65104;52.994;6.552;2023-03-23T08:10:50;10.68;;;2.55;;
76296;SDS011;65104;52.994;6.552;2023-03-23T08:13:16;10.27;;;2.35;;
76296;SDS011;65104;52.994;6.552;2023-03-23T08:15:42;11.95;;;2.50;;
76296;SDS011;65104;52.994;6.552;2023-03-23T08:18:09;12.02;;;2.30;;
76296;SDS011;65104;52.994;6.552;2023-03-23T08:20:35;13.65;;;2.70;;
76296;SDS011;65104;52.994;6.552;2023-03-23T08:23:01;12.00;;;2.35;;
76296;SDS011;65104;52.994;6.552;2023-03-23T08:25:28;13.50;;;2.85;;
76296;SDS011;65104;52.994;6.552;2023-03-23T08:27:56;14.20;;;2.30;;
76296;SDS011;65104;52.994;6.552;2023-03-23T08:30:22;12.65;;;3.15;;
76296;SDS011;65104;52.994;6.552;2023-03-23T08:32:48;8.30;;;3.25;;
76296;SDS011;65104;52.994;6.552;2023-03-23T08:35:14;13.35;;;3.10;;
76296;SDS011;65104;52.994;6.552;2023-03-23T08:37:40;11.90;;;2.88;;
76296;SDS011;65104;52.994;6.552;2023-03-23T08:40:07;13.93;;;3.60;;
76296;SDS011;65104;52.994;6.552;2023-03-23T08:42:37;8.45;;;2.05;;
76296;SDS011;65104;52.994;6.552;2023-03-23T08:45:04;10.40;;;2.45;;
76296;SDS011;65104;52.994;6.552;2023-03-23T08:47:31;13.95;;;3.45;;
76296;SDS011;65104;52.994;6.552;2023-03-23T08:49:57;12.32;;;2.50;;
76296;SDS011;65104;52.994;6.552;2023-03-23T08:52:22;8.35;;;2.42;;
76296;SDS011;65104;52.994;6.552;2023-03-23T08:54:48;15.20;;;2.75;;
76296;SDS011;65104;52.994;6.552;2023-03-23T08:57:14;13.25;;;2.50;;
76296;SDS011;65104;52.994;6.552;2023-03-23T08:59:40;11.52;;;2.13;;
76296;SDS011;65104;52.994;6.552;2023-03-23T09:02:08;10.15;;;3.38;;
76296;SDS011;65104;52.994;6.552;2023-03-23T09:04:36;15.18;;;2.65;;
76296;SDS011;65104;52.994;6.552;2023-03-23T09:07:02;17.20;;;2.17;;
76296;SDS011;65104;52.994;6.552;2023-03-23T09:09:28;15.02;;;3.50;;
76296;SDS011;65104;52.994;6.552;2023-03-23T09:11:54;13.38;;;2.40;;
76296;SDS011;65104;52.994;6.552;2023-03-23T09:14:19;11.23;;;2.53;;
76296;SDS011;65104;52.994;6.552;2023-03-23T09:16:44;13.02;;;2.10;;
76296;SDS011;65104;52.994;6.552;2023-03-23T09:19:11;11.55;;;2.22;;
76296;SDS011;65104;52.994;6.552;2023-03-23T09:21:37;13.90;;;2.33;;
76296;SDS011;65104;52.994;6.552;2023-03-23T09:24:03;10.55;;;2.50;;
76296;SDS011;65104;52.994;6.552;2023-03-23T09:26:29;12.20;;;3.03;;
76296;SDS011;65104;52.994;6.552;2023-03-23T09:28:55;10.32;;;2.67;;
76296;SDS011;65104;52.994;6.552;2023-03-23T09:31:21;12.82;;;3.53;;
76296;SDS011;65104;52.994;6.552;2023-03-23T09:33:47;10.32;;;2.50;;
76296;SDS011;65104;52.994;6.552;2023-03-23T09:36:17;12.23;;;2.50;;
76296;SDS011;65104;52.994;6.552;2023-03-23T09:38:43;11.80;;;2.97;;
76296;SDS011;65104;52.994;6.552;2023-03-23T09:49:29;12.00;;;2.60;;
76296;SDS011;65104;52.994;6.552;2023-03-23T09:52:01;7.20;;;2.13;;
76296;SDS011;65104;52.994;6.552;2023-03-23T09:54:36;11.23;;;2.58;;
76296;SDS011;65104;52.994;6.552;2023-03-23T09:57:05;17.92;;;3.22;;
76296;SDS011;65104;52.994;6.552;2023-03-23T09:59:41;9.30;;;2.17;;
76296;SDS011;65104;52.994;6.552;2023-03-23T10:02:19;13.23;;;2.55;;
76296;SDS011;65104;52.994;6.552;2023-03-23T10:04:52;10.52;;;1.85;;
76296;SDS011;65104;52.994;6.552;2023-03-23T10:07:25;17.02;;;3.25;;
76296;SDS011;65104;52.994;6.552;2023-03-23T10:09:53;10.45;;;2.10;;
76296;SDS011;65104;52.994;6.552;2023-03-23T10:12:35;5.60;;;2.03;;
76296;SDS011;65104;52.994;6.552;2023-03-23T10:20:42;8.57;;;1.73;;
76296;SDS011;65104;52.994;6.552;2023-03-23T10:28:32;12.30;;;2.63;;
76296;SDS011;65104;52.994;6.552;2023-03-23T10:31:10;8.27;;;2.55;;
76296;SDS011;65104;52.994;6.552;2023-03-23T10:33:43;11.60;;;2.05;;
76296;SDS011;65104;52.994;6.552;2023-03-23T10:41:18;11.40;;;2.13;;
76296;SDS011;65104;52.994;6.552;2023-03-23T10:43:45;9.88;;;2.65;;
76296;SDS011;65104;52.994;6.552;2023-03-23T10:46:17;6.00;;;1.90;;
76296;SDS011;65104;52.994;6.552;2023-03-23T10:49:05;9.70;;;2.22;;
76296;SDS011;65104;52.994;6.552;2023-03-23T10:51:37;12.13;;;1.98;;
76296;SDS011;65104;52.994;6.552;2023-03-23T10:54:06;9.70;;;2.95;;
76296;SDS011;65104;52.994;6.552;2023-03-23T10:56:37;7.40;;;2.00;;
76296;SDS011;65104;52.994;6.552;2023-03-23T10:59:21;7.88;;;2.17;;
76296;SDS011;65104;52.994;6.552;2023-03-23T11:01:55;5.13;;;1.02;;
76296;SDS011;65104;52.994;6.552;2023-03-23T11:04:23;4.15;;;1.30;;
76296;SDS011;65104;52.994;6.552;2023-03-23T11:06:50;6.32;;;1.50;;
76296;SDS011;65104;52.994;6.552;2023-03-23T11:09:20;7.22;;;1.67;;
76296;SDS011;65104;52.994;6.552;2023-03-23T11:11:57;7.47;;;1.60;;
76296;SDS011;65104;52.994;6.552;2023-03-23T11:14:27;7.57;;;1.90;;
76296;SDS011;65104;52.994;6.552;2023-03-23T11:16:55;5.47;;;1.65;;
76296;SDS011;65104;52.994;6.552;2023-03-23T11:19:24;7.60;;;1.80;;
76296;SDS011;65104;52.994;6.552;2023-03-23T11:21:52;8.57;;;1.95;;
76296;SDS011;65104;52.994;6.552;2023-03-23T11:24:25;8.52;;;1.98;;
76296;SDS011;65104;52.994;6.552;2023-03-23T11:26:52;6.30;;;1.65;;
76296;SDS011;65104;52.994;6.552;2023-03-23T11:29:22;5.90;;;2.17;;
76296;SDS011;65104;52.994;6.552;2023-03-23T11:31:51;5.80;;;1.58;;
76296;SDS011;65104;52.994;6.552;2023-03-23T11:34:40;9.20;;;2.50;;
76296;SDS011;65104;52.994;6.552;2023-03-23T11:37:13;11.48;;;2.80;;
76296;SDS011;65104;52.994;6.552;2023-03-23T11:40:14;7.43;;;2.03;;
76296;SDS011;65104;52.994;6.552;2023-03-23T11:51:30;9.27;;;1.95;;
76296;SDS011;65104;52.994;6.552;2023-03-23T11:56:41;5.43;;;1.52;;
76296;SDS011;65104;52.994;6.552;2023-03-23T11:59:25;4.53;;;1.52;;
76296;SDS011;65104;52.994;6.552;2023-03-23T12:01:58;9.85;;;2.15;;
76296;SDS011;65104;52.994;6.552;2023-03-23T12:12:19;5.43;;;1.73;;
76296;SDS011;65104;52.994;6.552;2023-03-23T12:26:39;5.10;;;1.20;;
76296;SDS011;65104;52.994;6.552;2023-03-23T12:29:25;8.50;;;1.70;;
76296;SDS011;65104;52.994;6.552;2023-03-23T12:34:30;7.55;;;1.33;;
76296;SDS011;65104;52.994;6.552;2023-03-23T12:48:10;6.82;;;1.48;;
76296;SDS011;65104;52.994;6.552;2023-03-23T12:53:23;6.20;;;2.00;;
76296;SDS011;65104;52.994;6.552;2023-03-23T12:56:04;7.82;;;1.60;;
76296;SDS011;65104;52.994;6.552;2023-03-23T12:58:40;6.03;;;1.70;;
76296;SDS011;65104;52.994;6.552;2023-03-23T13:01:14;11.07;;;2.28;;
76296;SDS011;65104;52.994;6.552;2023-03-23T13:03:56;8.80;;;1.88;;
76296;SDS011;65104;52.994;6.552;2023-03-23T13:11:49;7.28;;;1.85;;
76296;SDS011;65104;52.994;6.552;2023-03-23T13:14:25;6.47;;;1.55;;
76296;SDS011;65104;52.994;6.552;2023-03-23T13:24:56;10.18;;;2.03;;
76296;SDS011;65104;52.994;6.552;2023-03-23T13:27:26;6.25;;;1.73;;
76296;SDS011;65104;52.994;6.552;2023-03-23T13:32:27;5.80;;;1.95;;
76296;SDS011;65104;52.994;6.552;2023-03-23T13:35:00;6.00;;;1.63;;
76296;SDS011;65104;52.994;6.552;2023-03-23T13:37:28;6.45;;;1.30;;
76296;SDS011;65104;52.994;6.552;2023-03-23T13:42:36;6.45;;;1.63;;
76296;SDS011;65104;52.994;6.552;2023-03-23T13:47:44;9.75;;;2.25;;
76296;SDS011;65104;52.994;6.552;2023-03-23T13:55:27;7.35;;;1.63;;
76296;SDS011;65104;52.994;6.552;2023-03-23T14:00:44;3.72;;;1.55;;
76296;SDS011;65104;52.994;6.552;2023-03-23T14:08:36;4.57;;;1.38;;
76296;SDS011;65104;52.994;6.552;2023-03-23T14:11:13;6.68;;;1.55;;
76296;SDS011;65104;52.994;6.552;2023-03-23T14:13:45;5.15;;;1.95;;
76296;SDS011;65104;52.994;6.552;2023-03-23T14:19:01;11.73;;;1.90;;
76296;SDS011;65104;52.994;6.552;2023-03-23T14:24:02;8.32;;;1.70;;
76296;SDS011;65104;52.994;6.552;2023-03-23T14:26:28;5.07;;;1.60;;
76296;SDS011;65104;52.994;6.552;2023-03-23T14:28:54;9.63;;;1.83;;
76296;SDS011;65104;52.994;6.552;2023-03-23T14:31:23;8.48;;;3.03;;
76296;SDS011;65104;52.994;6.552;2023-03-23T14:33:51;9.65;;;1.95;;
76296;SDS011;65104;52.994;6.552;2023-03-23T14:36:26;6.47;;;1.70;;
76296;SDS011;65104;52.994;6.552;2023-03-23T14:41:30;9.02;;;1.73;;
76296;SDS011;65104;52.994;6.552;2023-03-23T14:43:58;4.90;;;1.65;;
76296;SDS011;65104;52.994;6.552;2023-03-23T14:46:25;6.40;;;1.58;;
76296;SDS011;65104;52.994;6.552;2023-03-23T14:48:51;8.23;;;2.50;;
76296;SDS011;65104;52.994;6.552;2023-03-23T14:51:18;8.65;;;1.85;;
76296;SDS011;65104;52.994;6.552;2023-03-23T14:53:45;4.22;;;1.65;;
76296;SDS011;65104;52.994;6.552;2023-03-23T14:56:14;6.38;;;1.70;;
76296;SDS011;65104;52.994;6.552;2023-03-23T14:58:48;7.88;;;1.42;;
76296;SDS011;65104;52.994;6.552;2023-03-23T15:01:23;7.10;;;1.50;;
76296;SDS011;65104;52.994;6.552;2023-03-23T15:03:59;7.43;;;1.70;;
76296;SDS011;65104;52.994;6.552;2023-03-23T15:06:36;9.35;;;2.08;;
76296;SDS011;65104;52.994;6.552;2023-03-23T15:09:06;3.45;;;1.40;;
76296;SDS011;65104;52.994;6.552;2023-03-23T15:11:36;5.80;;;1.42;;
76296;SDS011;65104;52.994;6.552;2023-03-23T15:16:44;9.05;;;2.22;;
76296;SDS011;65104;52.994;6.552;2023-03-23T15:19:13;8.90;;;1.55;;
76296;SDS011;65104;52.994;6.552;2023-03-23T15:21:50;9.07;;;2.42;;
76296;SDS011;65104;52.994;6.552;2023-03-23T15:24:20;5.18;;;1.30;;
76296;SDS011;65104;52.994;6.552;2023-03-23T15:26:51;8.80;;;1.80;;
76296;SDS011;65104;52.994;6.552;2023-03-23T15:29:21;3.83;;;2.00;;
76296;SDS011;65104;52.994;6.552;2023-03-23T15:31:55;5.40;;;1.75;;
76296;SDS011;65104;52.994;6.552;2023-03-23T15:34:24;8.27;;;1.88;;
76296;SDS011;65104;52.994;6.552;2023-03-23T15:36:52;6.20;;;1.38;;
76296;SDS011;65104;52.994;6.552;2023-03-23T15:39:20;4.88;;;1.58;;
76296;SDS011;65104;52.994;6.552;2023-03-23T15:41:47;8.63;;;1.50;;
76296;SDS011;65104;52.994;6.552;2023-03-23T15:44:21;8.63;;;2.08;;
76296;SDS011;65104;52.994;6.552;2023-03-23T15:46:53;9.98;;;2.83;;
76296;SDS011;65104;52.994;6.552;2023-03-23T15:49:28;6.47;;;2.00;;
76296;SDS011;65104;52.994;6.552;2023-03-23T15:51:53;8.57;;;1.45;;
76296;SDS011;65104;52.994;6.552;2023-03-23T15:54:18;7.10;;;1.40;;
76296;SDS011;65104;52.994;6.552;2023-03-23T15:56:44;6.47;;;1.38;;
76296;SDS011;65104;52.994;6.552;2023-03-23T15:59:10;4.57;;;1.30;;
76296;SDS011;65104;52.994;6.552;2023-03-23T16:01:36;9.52;;;2.00;;
76296;SDS011;65104;52.994;6.552;2023-03-23T16:06:33;6.30;;;1.58;;
76296;SDS011;65104;52.994;6.552;2023-03-23T16:09:00;4.45;;;1.40;;
76296;SDS011;65104;52.994;6.552;2023-03-23T16:11:28;3.85;;;1.25;;
76296;SDS011;65104;52.994;6.552;2023-03-23T16:13:55;8.98;;;1.50;;
76296;SDS011;65104;52.994;6.552;2023-03-23T16:18:55;7.47;;;1.75;;
76296;SDS011;65104;52.994;6.552;2023-03-23T16:21:20;7.53;;;2.17;;
76296;SDS011;65104;52.994;6.552;2023-03-23T16:23:46;4.53;;;1.40;;
76296;SDS011;65104;52.994;6.552;2023-03-23T16:26:12;9.00;;;1.60;;
76296;SDS011;65104;52.994;6.552;2023-03-23T16:28:39;10.68;;;2.13;;
76296;SDS011;65104;52.994;6.552;2023-03-23T16:31:05;6.82;;;1.75;;
76296;SDS011;65104;52.994;6.552;2023-03-23T16:33:31;8.82;;;3.25;;
76296;SDS011;65104;52.994;6.552;2023-03-23T16:35:56;13.77;;;4.82;;
76296;SDS011;65104;52.994;6.552;2023-03-23T16:38:22;8.20;;;2.60;;
76296;SDS011;65104;52.994;6.552;2023-03-23T16:40:48;8.43;;;3.60;;
76296;SDS011;65104;52.994;6.552;2023-03-23T16:43:14;8.95;;;3.78;;
76296;SDS011;65104;52.994;6.552;2023-03-23T16:45:40;9.55;;;2.45;;
76296;SDS011;65104;52.994;6.552;2023-03-23T16:48:07;9.60;;;3.20;;
76296;SDS011;65104;52.994;6.552;2023-03-23T16:50:33;7.60;;;1.60;;
76296;SDS011;65104;52.994;6.552;2023-03-23T16:53:00;5.82;;;2.78;;
76296;SDS011;65104;52.994;6.552;2023-03-23T16:55:25;7.70;;;1.83;;
76296;SDS011;65104;52.994;6.552;2023-03-23T16:57:52;7.50;;;2.55;;
76296;SDS011;65104;52.994;6.552;2023-03-23T17:00:18;7.35;;;2.30;;
76296;SDS011;65104;52.994;6.552;2023-03-23T17:02:44;5.78;;;2.40;;
76296;SDS011;65104;52.994;6.552;2023-03-23T17:05:11;9.93;;;2.50;;
76296;SDS011;65104;52.994;6.552;2023-03-23T17:07:38;10.07;;;2.55;;
76296;SDS011;65104;52.994;6.552;2023-03-23T17:10:05;10.18;;;2.72;;
76296;SDS011;65104;52.994;6.552;2023-03-23T17:12:31;9.82;;;2.22;;
76296;SDS011;65104;52.994;6.552;2023-03-23T17:14:57;8.80;;;2.03;;
76296;SDS011;65104;52.994;6.552;2023-03-23T17:17:22;9.55;;;2.63;;
76296;SDS011;65104;52.994;6.552;2023-03-23T17:19:48;12.55;;;3.15;;
76296;SDS011;65104;52.994;6.552;2023-03-23T17:22:14;11.13;;;3.22;;